Terminal Aerodrome Forecast
Issued by NWS Glasgow, MT

Home | Current Version | Previous Version | Text Only | Print | Product List | Glossary On
Versions: 1 2 3 4 5 6 7 8 9 10 11 12 13 14 15 16
077
FTUS45 KGGW 291525 AAB
TAFGGW
TAF AMD
KGGW 291525Z 2915/3012 10005KT P6SM SCT110
     FM291700 VRB06KT 6SM -SHRA SCT030 BKN060
     FM292000 18004KT P6SM SCT110
     FM300300 12005KT P6SM FEW100=

USA.gov is the U.S. government's official web portal to all federal, state and local government web resources and services.